Aviation Digital Data Service (ADDS)

Output produced by METARs form (2041 UTC 20 August 2019)
found at http://www.aviationweather.gov/metar/data/
 
METAR text: AGGM 202000Z 00000KT 9999 FEW016 SCT026 BKN300 25/24 Q1009
Conditions at: AGGM (MUNDA/NEW GEORGI, SB) observed 2000 UTC 20 August 2019
Temperature: 25.0°C (77°F)
Dewpoint: 24.0°C (75°F) [RH = 94%]
Pressure (altimeter): 29.79 inches Hg (1009.0 mb)
Winds: calm
Visibility: 6 or more miles (10+ km)
Ceiling: 30000 feet AGL
Clouds: few clouds at 1600 feet AGL
scattered clouds at 2600 feet AGL
broken clouds at 30000 feet AGL
Weather: no significant weather observed at this time

METAR text: AGGM 200600Z 09010KT 9999 FEW016 FEW017CB SCT028 OVC100 26/24 Q1009
Conditions at: AGGM (MUNDA/NEW GEORGI, SB) observed 0600 UTC 20 August 2019
Temperature: 26.0°C (79°F)
Dewpoint: 24.0°C (75°F) [RH = 89%]
Pressure (altimeter): 29.79 inches Hg (1009.0 mb)
Winds: from the E (90 degrees) at 12 MPH (10 knots; 5.1 m/s)
Visibility: 6 or more miles (10+ km)
Ceiling: 10000 feet AGL
Clouds: few clouds at 1600 feet AGL
few clouds at 1700 feet AGL
scattered clouds at 2800 feet AGL
overcast cloud deck at 10000 feet AGL
Weather: no significant weather observed at this time

METAR text: AGGM 200500Z 05005KT 9999 -DZ FEW016 FEW017CB SCT027 OVC100 25/23 Q1008
Conditions at: AGGM (MUNDA/NEW GEORGI, SB) observed 0500 UTC 20 August 2019
Temperature: 25.0°C (77°F)
Dewpoint: 23.0°C (73°F) [RH = 89%]
Pressure (altimeter): 29.76 inches Hg (1008.0 mb)
Winds: from the NE (50 degrees) at 6 MPH (5 knots; 2.6 m/s)
Visibility: 6 or more miles (10+ km)
Ceiling: 10000 feet AGL
Clouds: few clouds at 1600 feet AGL
few clouds at 1700 feet AGL
scattered clouds at 2700 feet AGL
overcast cloud deck at 10000 feet AGL
Weather: -DZ  (light drizzle)

METAR text: AGGM 200400Z 09004KT 9999 -DZ FEW016 FEW017CB SCT027 OVC100 24/23 Q1009
Conditions at: AGGM (MUNDA/NEW GEORGI, SB) observed 0400 UTC 20 August 2019
Temperature: 24.0°C (75°F)
Dewpoint: 23.0°C (73°F) [RH = 94%]
Pressure (altimeter): 29.79 inches Hg (1009.0 mb)
Winds: from the E (90 degrees) at 5 MPH (4 knots; 2.1 m/s)
Visibility: 6 or more miles (10+ km)
Ceiling: 10000 feet AGL
Clouds: few clouds at 1600 feet AGL
few clouds at 1700 feet AGL
scattered clouds at 2700 feet AGL
overcast cloud deck at 10000 feet AGL
Weather: -DZ  (light drizzle)

METAR text: AGGM 200300Z 00000KT 8000M -RA FEW015 FEW016CB SCT027 OVC090 24/23 Q1010
Conditions at: AGGM (MUNDA/NEW GEORGI, SB) observed 0300 UTC 20 August 2019
Temperature: 24.0°C (75°F)
Dewpoint: 23.0°C (73°F) [RH = 94%]
Pressure (altimeter): 29.82 inches Hg (1010.0 mb)
Winds: calm
Visibility: 5 miles ( 8 km)
Ceiling: 9000 feet AGL
Clouds: few clouds at 1500 feet AGL
few clouds at 1600 feet AGL
scattered clouds at 2700 feet AGL
overcast cloud deck at 9000 feet AGL
Weather: -RA  (light rain)

METAR text: AGGM 200230Z 00000KT 5000M -TSDZ FEW016 FEW017CB SCT027 OVC100 25/24 Q1010
Conditions at: AGGM (MUNDA/NEW GEORGI, SB) observed 0230 UTC 20 August 2019
Temperature: 25.0°C (77°F)
Dewpoint: 24.0°C (75°F) [RH = 94%]
Pressure (altimeter): 29.82 inches Hg (1010.0 mb)
Winds: calm
Visibility: 3 miles ( 5 km)
Ceiling: 10000 feet AGL
Clouds: few clouds at 1600 feet AGL
few clouds at 1700 feet AGL
scattered clouds at 2700 feet AGL
overcast cloud deck at 10000 feet AGL
Weather: -TSDZ  (unknown weather)

METAR text: AGGM 200200Z 09005KT 4000M -TSSH FEW017 FEW018CB OVC100 25/24 Q1010
Conditions at: AGGM (MUNDA/NEW GEORGI, SB) observed 0200 UTC 20 August 2019
Temperature: 25.0°C (77°F)
Dewpoint: 24.0°C (75°F) [RH = 94%]
Pressure (altimeter): 29.82 inches Hg (1010.0 mb)
Winds: from the E (90 degrees) at 6 MPH (5 knots; 2.6 m/s)
Visibility: 2.49 miles (4.01 km)
Ceiling: 10000 feet AGL
Clouds: few clouds at 1700 feet AGL
few clouds at 1800 feet AGL
overcast cloud deck at 10000 feet AGL
Weather: SH TS  (showers, thunderstorm)

METAR text: AGGM 200100Z 00000KT 9999 -RA FEW018 SCT028 BKN100 26/24 Q1010
Conditions at: AGGM (MUNDA/NEW GEORGI, SB) observed 0100 UTC 20 August 2019
Temperature: 26.0°C (79°F)
Dewpoint: 24.0°C (75°F) [RH = 89%]
Pressure (altimeter): 29.82 inches Hg (1010.0 mb)
Winds: calm
Visibility: 6 or more miles (10+ km)
Ceiling: 10000 feet AGL
Clouds: few clouds at 1800 feet AGL
scattered clouds at 2800 feet AGL
broken clouds at 10000 feet AGL
Weather: -RA  (light rain)

METAR text: AGGM 200000Z 00000KT 9999 -SH FEW018 BKN100 26/24 Q1011
Conditions at: AGGM (MUNDA/NEW GEORGI, SB) observed 0000 UTC 20 August 2019
Temperature: 26.0°C (79°F)
Dewpoint: 24.0°C (75°F) [RH = 89%]
Pressure (altimeter): 29.85 inches Hg (1011.0 mb)
Winds: calm
Visibility: 6 or more miles (10+ km)
Ceiling: 10000 feet AGL
Clouds: few clouds at 1800 feet AGL
broken clouds at 10000 feet AGL
Weather: -SH  (unknown weather)

METAR text: AGGM 192300Z 09003KT 9999 FEW018 FEW019CB BKN100 27/24 Q1011
Conditions at: AGGM (MUNDA/NEW GEORGI, SB) observed 2300 UTC 19 August 2019
Temperature: 27.0°C (81°F)
Dewpoint: 24.0°C (75°F) [RH = 84%]
Pressure (altimeter): 29.85 inches Hg (1011.0 mb)
Winds: from the E (90 degrees) at 3 MPH (3 knots; 1.5 m/s)
Visibility: 6 or more miles (10+ km)
Ceiling: 10000 feet AGL
Clouds: few clouds at 1800 feet AGL
few clouds at 1900 feet AGL
broken clouds at 10000 feet AGL
Weather: no significant weather observed at this time

METAR text: AGGM 192200Z 00000KT 9999 FEW017 BKN300 26/23 Q1011
Conditions at: AGGM (MUNDA/NEW GEORGI, SB) observed 2200 UTC 19 August 2019
Temperature: 26.0°C (79°F)
Dewpoint: 23.0°C (73°F) [RH = 84%]
Pressure (altimeter): 29.85 inches Hg (1011.0 mb)
Winds: calm
Visibility: 6 or more miles (10+ km)
Ceiling: 30000 feet AGL
Clouds: few clouds at 1700 feet AGL
broken clouds at 30000 feet AGL
Weather: no significant weather observed at this time

METAR text: AGGM 192100Z 00000KT 9999 FEW016 SCT100 BKN300 25/23 Q1010
Conditions at: AGGM (MUNDA/NEW GEORGI, SB) observed 2100 UTC 19 August 2019
Temperature: 25.0°C (77°F)
Dewpoint: 23.0°C (73°F) [RH = 89%]
Pressure (altimeter): 29.82 inches Hg (1010.0 mb)
Winds: calm
Visibility: 6 or more miles (10+ km)
Ceiling: 30000 feet AGL
Clouds: few clouds at 1600 feet AGL
scattered clouds at 10000 feet AGL
broken clouds at 30000 feet AGL
Weather: no significant weather observed at this time

Forecast for: AGGM (MUNDA/NEW GEORGI, SB)
Text: TAF AGGM 201710Z 2018/2118 09012KT 9999 -SHRA SCT018 BKN030 INTER 2018/2100 5000 TSSH BKN016 FEW017CB Q 1009 1011 1011 1009
Forecast period: 1800 UTC 20 August 2019 to 1800 UTC 21 August 2019
Forecast type: FROM: standard forecast or significant change
Winds: from the E (90 degrees) at 14 MPH (12 knots; 6.2 m/s)
Visibility: 6 or more miles 10+ km)
Ceiling: 3000 feet AGL
Clouds: scattered clouds at 1800 feet AGL
broken clouds at 3000 feet AGL
Weather: -SHRA  (light rain showers)
Text:
Forecast period: 1800 UTC 20 August 2019 to 0000 UTC 21 August 2019
Forecast type: TEMPORARY: The following changes expected for less than half the time period
Visibility: 3 miles (5 km)
Ceiling: 1600 feet AGL
Clouds: broken clouds at 1600 feet AGL
few clouds at 1700 feet AGL
Weather: SH TS  (showers, thunderstorm)